Time;durP1;ratioP1;P1;durP2;ratioP2;P2;SDS_P1;SDS_P2;PMS_P1;PMS_P2;Temp;Humidity;BMP_temperature;BMP_pressure;BME280_temperature;BME280_humidity;BME280_pressure;Samples;Min_cycle;Max_cycle;Signal;HPM_P1;HPM_P2
2022/05/30 00:02:21;;;;;;;;;;;8.70;99.90;;;;;;5017444;28;20324;-74
2022/05/30 00:04:46;;;;;;;;;;;8.60;99.90;;;;;;5017098;28;20313;-75
2022/05/30 00:07:12;;;;;;;;;;;8.60;99.90;;;;;;5016509;28;20004;-74
2022/05/30 00:09:38;;;;;;;;;;;8.60;99.90;;;;;;5016373;28;19921;-74
2022/05/30 00:12:03;;;;;;;;;;;8.60;99.90;;;;;;5016036;28;19976;-74
2022/05/30 00:14:29;;;;;;;;;;;8.60;99.90;;;;;;5017509;28;20010;-74
2022/05/30 00:16:55;;;;;;;;;;;8.60;99.90;;;;;;5016974;28;20320;-75
2022/05/30 00:19:20;;;;;;;;;;;8.60;99.90;;;;;;5017367;28;19921;-74
2022/05/30 00:21:46;;;;;;;;;;;8.50;99.90;;;;;;5017166;28;20281;-74
2022/05/30 00:24:11;;;;;;;;;;;8.50;99.90;;;;;;5016662;28;20277;-75
2022/05/30 00:26:37;;;;;;;;;;;8.50;99.90;;;;;;5017272;28;20365;-74
2022/05/30 00:29:03;;;;;;;;;;;8.40;99.90;;;;;;5032484;28;19921;-74
2022/05/30 00:31:29;;;;;;;;;;;8.40;99.90;;;;;;5017031;28;19926;-74
2022/05/30 00:33:55;;;;;;;;;;;8.30;99.90;;;;;;5016953;28;20004;-74
2022/05/30 00:36:20;;;;;;;;;;;8.20;99.90;;;;;;5017314;28;20254;-75
2022/05/30 00:38:46;;;;;;;;;;;8.20;99.90;;;;;;5017072;28;19976;-74
2022/05/30 00:41:11;;;;;;;;;;;8.20;99.90;;;;;;5016248;28;19971;-74
2022/05/30 00:43:38;;;;;;;;;;;8.20;99.90;;;;;;5019696;28;19965;-74
2022/05/30 00:46:06;;;;;;;;;;;8.10;99.90;;;;;;5018268;28;20297;-75
2022/05/30 00:48:36;;;;;;;;;;;8.10;99.90;;;;;;5017143;28;20277;-74
2022/05/30 00:51:03;;;;;;;;;;;8.10;99.90;;;;;;5015637;28;20265;-74
2022/05/30 00:53:29;;;;;;;;;;;8.00;99.90;;;;;;5032327;28;19921;-74
2022/05/30 00:55:55;;;;;;;;;;;8.00;99.90;;;;;;5017158;28;19921;-74
2022/05/30 00:58:20;;;;;;;;;;;8.00;99.90;;;;;;5017224;28;19944;-74
2022/05/30 01:00:46;;;;;;;;;;;8.00;99.90;;;;;;5031874;28;19928;-74
2022/05/30 01:08:40;;;;;;;;;;;7.90;99.90;;;;;;5022019;28;19928;-74
2022/05/30 01:11:05;;;;;;;;;;;7.90;99.90;;;;;;5056342;28;19965;-75
2022/05/30 01:13:31;;;;;;;;;;;8.00;99.90;;;;;;5040647;28;19909;-76
2022/05/30 01:15:56;;;;;;;;;;;8.10;99.90;;;;;;5039431;28;19905;-79
2022/05/30 01:18:23;;;;;;;;;;;8.10;99.90;;;;;;5021597;28;19929;-74
2022/05/30 01:20:52;;;;;;;;;;;8.10;99.90;;;;;;5016663;28;19925;-74
2022/05/30 01:23:17;;;;;;;;;;;8.10;99.90;;;;;;5016110;28;20024;-74
2022/05/30 01:25:51;;;;;;;;;;;8.10;99.90;;;;;;5016408;28;20012;-74
2022/05/30 01:28:26;;;;;;;;;;;8.10;99.90;;;;;;5031231;28;19925;-73
2022/05/30 01:30:52;;;;;;;;;;;8.20;99.90;;;;;;5031400;28;20023;-74
2022/05/30 01:33:18;;;;;;;;;;;8.20;99.90;;;;;;5015518;28;19925;-74
2022/05/30 01:35:43;;;;;;;;;;;8.20;99.90;;;;;;5031131;28;20357;-74
2022/05/30 01:38:09;;;;;;;;;;;8.20;99.90;;;;;;5030749;28;20345;-74
2022/05/30 01:40:35;;;;;;;;;;;8.20;99.90;;;;;;5015599;28;20357;-74
2022/05/30 01:43:00;;;;;;;;;;;8.30;99.90;;;;;;5030509;28;20015;-79
2022/05/30 01:45:26;;;;;;;;;;;8.20;99.90;;;;;;5015910;28;19983;-74
2022/05/30 01:47:51;;;;;;;;;;;8.20;99.90;;;;;;5015181;28;19921;-73
2022/05/30 01:50:18;;;;;;;;;;;8.10;99.90;;;;;;5014881;28;20005;-73
2022/05/30 01:52:44;;;;;;;;;;;8.10;99.90;;;;;;5030591;28;19929;-74
2022/05/30 01:55:09;;;;;;;;;;;8.10;99.90;;;;;;5014944;28;19921;-74
2022/05/30 01:57:35;;;;;;;;;;;7.90;99.90;;;;;;5015324;28;19968;-74
2022/05/30 02:00:00;;;;;;;;;;;7.90;99.90;;;;;;5015399;28;19975;-74
2022/05/30 02:02:26;;;;;;;;;;;7.90;99.90;;;;;;5013605;28;19925;-74
2022/05/30 02:04:53;;;;;;;;;;;7.80;99.90;;;;;;5014874;28;19975;-74
2022/05/30 02:07:18;;;;;;;;;;;7.70;99.90;;;;;;5014849;28;19925;-74
2022/05/30 02:09:44;;;;;;;;;;;7.60;99.90;;;;;;5014430;28;20083;-74
2022/05/30 02:12:10;;;;;;;;;;;7.60;99.90;;;;;;5014667;28;19989;-73
2022/05/30 02:14:36;;;;;;;;;;;7.60;99.90;;;;;;5014998;28;20281;-74
2022/05/30 02:17:01;;;;;;;;;;;7.50;99.90;;;;;;5015057;28;19928;-74
2022/05/30 02:19:28;;;;;;;;;;;7.50;99.90;;;;;;5014552;28;20436;-73
2022/05/30 02:21:53;;;;;;;;;;;7.50;99.90;;;;;;5029923;28;20424;-73
2022/05/30 02:24:19;;;;;;;;;;;7.50;99.90;;;;;;5014177;28;19921;-74
2022/05/30 02:26:44;;;;;;;;;;;7.50;99.90;;;;;;5014701;28;19921;-74
2022/05/30 02:29:10;;;;;;;;;;;7.60;99.90;;;;;;5014095;28;19922;-74
2022/05/30 02:31:36;;;;;;;;;;;7.60;99.90;;;;;;5029966;28;19928;-74
2022/05/30 02:36:46;;;;;;;;;;;7.40;99.90;;;;;;5014706;28;19928;-73
2022/05/30 02:39:13;;;;;;;;;;;7.30;99.90;;;;;;5021039;28;20012;-74
2022/05/30 02:41:39;;;;;;;;;;;7.30;99.90;;;;;;5021272;28;19971;-74
2022/05/30 02:44:04;;;;;;;;;;;7.30;99.90;;;;;;5035092;28;19921;-74
2022/05/30 02:46:30;;;;;;;;;;;7.30;99.90;;;;;;5038678;28;19936;-74
2022/05/30 02:48:56;;;;;;;;;;;7.30;99.90;;;;;;5053226;28;19921;-73
2022/05/30 02:51:21;;;;;;;;;;;7.30;99.90;;;;;;5026961;28;20280;-73
2022/05/30 02:53:47;;;;;;;;;;;7.30;99.90;;;;;;5013434;28;19928;-73
2022/05/30 02:56:12;;;;;;;;;;;7.10;99.90;;;;;;5014123;28;20290;-75
2022/05/30 02:58:38;;;;;;;;;;;7.10;99.90;;;;;;5014183;28;19987;-73
2022/05/30 03:01:04;;;;;;;;;;;7.10;99.90;;;;;;5014167;28;20346;-73
2022/05/30 03:03:30;;;;;;;;;;;7.10;99.90;;;;;;5013842;28;19947;-73
2022/05/30 03:05:55;;;;;;;;;;;7.10;99.90;;;;;;5014130;28;19921;-74
2022/05/30 03:08:21;;;;;;;;;;;7.10;99.90;;;;;;5029109;28;19986;-74
2022/05/30 03:10:46;;;;;;;;;;;7.20;99.90;;;;;;5014003;28;19926;-74
2022/05/30 03:13:12;;;;;;;;;;;7.10;99.90;;;;;;5014062;28;19944;-73
2022/05/30 03:15:37;;;;;;;;;;;7.20;99.90;;;;;;5013585;28;20023;-73
2022/05/30 03:18:03;;;;;;;;;;;7.10;99.90;;;;;;5013861;28;19972;-74
2022/05/30 03:20:29;;;;;;;;;;;7.20;99.90;;;;;;5013142;28;19976;-73
2022/05/30 03:22:56;;;;;;;;;;;7.20;99.90;;;;;;5013445;28;19929;-73
2022/05/30 03:25:21;;;;;;;;;;;7.20;99.90;;;;;;5012931;28;19925;-74
2022/05/30 03:27:47;;;;;;;;;;;7.20;99.90;;;;;;5014005;28;19921;-73
2022/05/30 03:30:12;;;;;;;;;;;7.20;99.90;;;;;;5014113;28;20444;-74
2022/05/30 03:32:38;;;;;;;;;;;7.10;99.90;;;;;;5028730;28;19925;-74
2022/05/30 03:35:04;;;;;;;;;;;7.10;99.90;;;;;;5013721;28;19922;-74
2022/05/30 03:37:30;;;;;;;;;;;7.10;99.90;;;;;;5013402;28;19921;-73
2022/05/30 03:39:55;;;;;;;;;;;7.10;99.90;;;;;;5013710;28;20290;-74
2022/05/30 03:42:21;;;;;;;;;;;7.10;99.90;;;;;;5013355;28;19921;-74
2022/05/30 03:44:46;;;;;;;;;;;7.10;99.90;;;;;;5013692;28;19928;-74
2022/05/30 03:47:12;;;;;;;;;;;7.10;99.90;;;;;;5028969;28;20412;-74
2022/05/30 03:49:37;;;;;;;;;;;7.10;99.90;;;;;;5013241;28;19992;-74
2022/05/30 03:52:03;;;;;;;;;;;7.00;99.90;;;;;;5012710;28;19922;-74
2022/05/30 03:54:29;;;;;;;;;;;7.10;99.90;;;;;;5028399;28;19982;-74
2022/05/30 03:56:54;;;;;;;;;;;7.10;99.90;;;;;;5013524;28;19921;-73
2022/05/30 03:59:20;;;;;;;;;;;7.20;99.90;;;;;;5013490;28;19921;-73
2022/05/30 04:01:46;;;;;;;;;;;7.20;99.90;;;;;;5013350;28;19921;-73
2022/05/30 04:04:14;;;;;;;;;;;7.30;99.90;;;;;;5013491;28;19921;-74
2022/05/30 04:06:40;;;;;;;;;;;7.30;99.90;;;;;;5027979;28;20044;-73
2022/05/30 04:09:06;;;;;;;;;;;7.40;99.90;;;;;;5013589;28;20349;-74
2022/05/30 04:11:31;;;;;;;;;;;7.50;99.90;;;;;;5021780;28;19925;-73
2022/05/30 04:13:57;;;;;;;;;;;7.50;99.90;;;;;;5019817;28;19932;-74
2022/05/30 04:16:22;;;;;;;;;;;7.60;99.90;;;;;;5023000;28;19928;-72
2022/05/30 04:18:48;;;;;;;;;;;7.70;99.90;;;;;;5037543;28;19918;-74
2022/05/30 04:21:13;;;;;;;;;;;7.60;99.90;;;;;;5037962;28;19905;-74
2022/05/30 04:23:41;;;;;;;;;;;7.80;99.90;;;;;;5035711;28;20259;-72
2022/05/30 04:26:07;;;;;;;;;;;7.80;99.90;;;;;;5014590;28;19969;-74
2022/05/30 04:28:32;;;;;;;;;;;7.90;99.90;;;;;;5028466;28;19968;-74
2022/05/30 04:30:58;;;;;;;;;;;8.00;99.90;;;;;;5028630;28;19975;-74
2022/05/30 04:33:24;;;;;;;;;;;8.00;99.90;;;;;;5015619;28;20414;-74
2022/05/30 04:35:49;;;;;;;;;;;8.00;99.90;;;;;;5016569;28;20282;-73
2022/05/30 04:38:15;;;;;;;;;;;8.10;99.90;;;;;;5016487;28;19921;-74
2022/05/30 04:40:40;;;;;;;;;;;8.10;99.90;;;;;;5016383;28;19928;-74
2022/05/30 04:43:06;;;;;;;;;;;8.10;99.90;;;;;;5031937;28;19921;-73
2022/05/30 04:45:31;;;;;;;;;;;8.20;99.90;;;;;;5031564;28;19921;-75
2022/05/30 04:47:57;;;;;;;;;;;8.20;99.90;;;;;;5015772;28;19921;-73
2022/05/30 04:50:22;;;;;;;;;;;8.30;99.90;;;;;;5031800;28;20020;-75
2022/05/30 04:52:48;;;;;;;;;;;8.40;99.90;;;;;;5016163;28;19936;-74
2022/05/30 04:55:15;;;;;;;;;;;8.40;99.90;;;;;;5016281;28;19983;-74
2022/05/30 04:57:41;;;;;;;;;;;8.40;99.90;;;;;;5015760;28;20361;-74
2022/05/30 05:00:07;;;;;;;;;;;8.40;99.90;;;;;;5031668;28;19921;-75
2022/05/30 05:02:33;;;;;;;;;;;8.40;99.90;;;;;;5015955;28;20279;-74
2022/05/30 05:04:59;;;;;;;;;;;8.50;99.90;;;;;;5016183;28;19976;-73
2022/05/30 05:07:24;;;;;;;;;;;8.40;99.90;;;;;;5016064;28;19975;-73
2022/05/30 05:09:51;;;;;;;;;;;8.50;99.90;;;;;;5015806;28;19928;-73
2022/05/30 05:12:16;;;;;;;;;;;8.60;99.90;;;;;;5031333;28;19925;-73
2022/05/30 05:14:42;;;;;;;;;;;8.70;99.90;;;;;;5015743;28;20258;-74
2022/05/30 05:17:08;;;;;;;;;;;8.80;99.90;;;;;;5016012;28;19948;-76
2022/05/30 05:19:34;;;;;;;;;;;8.90;99.90;;;;;;5031061;28;19969;-76
2022/05/30 05:21:59;;;;;;;;;;;9.10;99.90;;;;;;5016011;28;19975;-74
2022/05/30 05:24:25;;;;;;;;;;;9.20;99.90;;;;;;5031152;28;19971;-75
2022/05/30 05:26:51;;;;;;;;;;;9.20;99.90;;;;;;5015349;28;19921;-75
2022/05/30 05:29:16;;;;;;;;;;;9.30;99.90;;;;;;5015988;28;20393;-75
2022/05/30 05:31:42;;;;;;;;;;;9.40;99.90;;;;;;5030495;28;19921;-75
2022/05/30 05:34:08;;;;;;;;;;;9.50;99.90;;;;;;5015694;28;19932;-75
2022/05/30 05:36:35;;;;;;;;;;;9.60;99.90;;;;;;5031092;28;19928;-75
2022/05/30 05:39:01;;;;;;;;;;;9.70;99.90;;;;;;5015685;28;20387;-76
2022/05/30 05:41:26;;;;;;;;;;;9.80;99.90;;;;;;5015637;28;19922;-74
2022/05/30 05:43:55;;;;;;;;;;;9.90;99.90;;;;;;5015735;28;20012;-75
2022/05/30 05:46:21;;;;;;;;;;;10.00;99.90;;;;;;5035355;28;19927;-76
2022/05/30 05:48:46;;;;;;;;;;;10.00;99.90;;;;;;5039563;28;19929;-75
2022/05/30 05:51:13;;;;;;;;;;;10.20;99.90;;;;;;5055252;28;19905;-74
2022/05/30 05:53:39;;;;;;;;;;;10.30;99.90;;;;;;5037380;28;19925;-76
2022/05/30 05:56:16;;;;;;;;;;;10.40;99.90;;;;;;5017051;28;20274;-79
2022/05/30 05:58:41;;;;;;;;;;;10.50;99.90;;;;;;5015053;28;20341;-75
2022/05/30 06:01:10;;;;;;;;;;;10.60;99.90;;;;;;5015335;28;19925;-75
2022/05/30 06:03:36;;;;;;;;;;;10.60;99.90;;;;;;5015332;28;19921;-75
2022/05/30 06:06:02;;;;;;;;;;;10.60;99.90;;;;;;5030070;28;19971;-75
2022/05/30 06:08:28;;;;;;;;;;;10.60;99.90;;;;;;5014897;28;20431;-75
2022/05/30 06:11:05;;;;;;;;;;;10.50;99.90;;;;;;5014811;28;19921;-75
2022/05/30 06:13:34;;;;;;;;;;;10.40;99.90;;;;;;5015246;28;19979;-75
2022/05/30 06:16:00;;;;;;;;;;;10.30;99.90;;;;;;5014583;28;19921;-75
2022/05/30 06:18:25;;;;;;;;;;;10.20;99.90;;;;;;5014982;28;20433;-75
2022/05/30 06:20:56;;;;;;;;;;;10.10;99.90;;;;;;5014693;28;19928;-75
2022/05/30 06:23:22;;;;;;;;;;;10.10;99.90;;;;;;5014935;28;19921;-75
2022/05/30 06:25:47;;;;;;;;;;;10.00;99.90;;;;;;5014344;28;20361;-75
2022/05/30 06:28:13;;;;;;;;;;;10.00;99.90;;;;;;5014073;28;20008;-74
2022/05/30 06:30:38;;;;;;;;;;;10.00;99.90;;;;;;5015033;28;20384;-74
2022/05/30 06:33:04;;;;;;;;;;;9.90;99.90;;;;;;5013466;28;20032;-75
2022/05/30 06:35:29;;;;;;;;;;;10.00;99.90;;;;;;5014583;28;19979;-74
2022/05/30 06:37:55;;;;;;;;;;;9.90;99.90;;;;;;5029644;28;19921;-75
2022/05/30 06:40:20;;;;;;;;;;;9.90;99.90;;;;;;5014555;28;20253;-74
2022/05/30 06:42:46;;;;;;;;;;;10.00;99.90;;;;;;5014161;28;19921;-75
2022/05/30 06:45:12;;;;;;;;;;;10.00;99.90;;;;;;5014852;28;20028;-74
2022/05/30 06:47:38;;;;;;;;;;;10.10;99.90;;;;;;5014473;28;19921;-74
2022/05/30 06:50:04;;;;;;;;;;;10.30;99.90;;;;;;5014090;28;19921;-75
2022/05/30 06:52:30;;;;;;;;;;;10.50;99.90;;;;;;5013485;28;19922;-75
2022/05/30 06:54:55;;;;;;;;;;;10.60;99.90;;;;;;5013926;28;19929;-76
2022/05/30 07:00:05;;;;;;;;;;;10.70;99.90;;;;;;5013853;28;19921;-75
2022/05/30 07:02:31;;;;;;;;;;;10.90;99.90;;;;;;5012948;28;19929;-76
2022/05/30 07:04:56;;;;;;;;;;;11.00;99.90;;;;;;4996311;28;19928;-75
2022/05/30 07:07:22;;;;;;;;;;;11.20;99.90;;;;;;5013908;28;20064;-75
2022/05/30 07:09:48;;;;;;;;;;;11.60;99.90;;;;;;5013897;28;20000;-75
2022/05/30 07:12:13;;;;;;;;;;;11.80;99.90;;;;;;5013616;28;19921;-75
2022/05/30 07:14:39;;;;;;;;;;;11.90;99.90;;;;;;5013466;28;19973;-75
2022/05/30 07:17:06;;;;;;;;;;;11.90;99.90;;;;;;5013690;28;19929;-76
2022/05/30 07:19:32;;;;;;;;;;;11.90;99.90;;;;;;5021450;28;19921;-72
2022/05/30 07:21:58;;;;;;;;;;;11.90;99.90;;;;;;5024524;28;19975;-71
2022/05/30 07:24:24;;;;;;;;;;;11.90;99.90;;;;;;5023147;28;19968;-71
2022/05/30 07:26:49;;;;;;;;;;;11.90;99.90;;;;;;5012737;28;19921;-75
2022/05/30 07:29:15;;;;;;;;;;;11.90;99.90;;;;;;5012283;28;19922;-74
2022/05/30 07:31:41;;;;;;;;;;;12.00;99.90;;;;;;5013844;28;19921;-76
2022/05/30 07:34:06;;;;;;;;;;;12.20;99.90;;;;;;5013405;28;20289;-75
2022/05/30 07:36:32;;;;;;;;;;;12.30;99.90;;;;;;5013734;28;20373;-76
2022/05/30 07:38:58;;;;;;;;;;;12.30;99.90;;;;;;5013481;28;19925;-76
2022/05/30 07:41:24;;;;;;;;;;;12.50;99.90;;;;;;5012553;28;19965;-76
2022/05/30 07:43:49;;;;;;;;;;;12.80;99.90;;;;;;5012821;28;19972;-75
2022/05/30 07:46:15;;;;;;;;;;;13.10;99.90;;;;;;5012965;28;19932;-74
2022/05/30 07:48:41;;;;;;;;;;;13.20;99.60;;;;;;5013482;28;19927;-76
2022/05/30 07:51:06;;;;;;;;;;;13.20;98.80;;;;;;5013225;28;19921;-76
2022/05/30 07:53:32;;;;;;;;;;;13.10;99.40;;;;;;5013614;28;20009;-76
2022/05/30 07:55:58;;;;;;;;;;;13.10;99.70;;;;;;5013097;28;19925;-76
2022/05/30 07:58:24;;;;;;;;;;;13.10;99.70;;;;;;5012408;28;20274;-75
2022/05/30 08:00:49;;;;;;;;;;;13.10;99.90;;;;;;5013589;28;20289;-76
2022/05/30 08:03:16;;;;;;;;;;;13.10;99.60;;;;;;5012039;28;19925;-76
2022/05/30 08:05:43;;;;;;;;;;;13.20;99.30;;;;;;5013457;28;20020;-75
2022/05/30 08:08:09;;;;;;;;;;;13.20;98.60;;;;;;5015029;28;19921;-76
2022/05/30 08:10:34;;;;;;;;;;;13.10;98.80;;;;;;5017357;28;19944;-75
2022/05/30 08:13:00;;;;;;;;;;;12.90;98.80;;;;;;5016819;28;19928;-76
2022/05/30 08:15:26;;;;;;;;;;;12.80;99.40;;;;;;5017322;28;20277;-75
2022/05/30 08:17:55;;;;;;;;;;;12.70;98.40;;;;;;5017243;28;19921;-76
2022/05/30 08:20:21;;;;;;;;;;;12.70;98.60;;;;;;5015603;28;19921;-79
2022/05/30 08:22:46;;;;;;;;;;;12.70;98.60;;;;;;5032348;28;20324;-76
2022/05/30 08:25:15;;;;;;;;;;;12.90;99.10;;;;;;5015610;28;19994;-78
2022/05/30 08:27:42;;;;;;;;;;;13.10;99.80;;;;;;5015187;28;19921;-77
2022/05/30 08:30:08;;;;;;;;;;;13.40;99.80;;;;;;5016721;28;19983;-80
2022/05/30 08:32:34;;;;;;;;;;;13.70;98.00;;;;;;5016016;28;19921;-81
2022/05/30 08:35:00;;;;;;;;;;;14.00;98.20;;;;;;5015862;28;20276;-81
2022/05/30 08:37:30;;;;;;;;;;;14.20;99.00;;;;;;5016840;28;19921;-79
2022/05/30 08:42:46;;;;;;;;;;;14.50;95.80;;;;;;5017056;28;20324;-79
2022/05/30 08:45:14;;;;;;;;;;;14.60;96.20;;;;;;5015334;28;19921;-81
2022/05/30 08:48:00;;;;;;;;;;;14.60;96.50;;;;;;5016663;28;19984;-80
2022/05/30 08:50:31;;;;;;;;;;;14.50;96.10;;;;;;5016085;28;20019;-79
2022/05/30 08:53:15;;;;;;;;;;;14.40;94.20;;;;;;5015475;28;19928;-81
2022/05/30 08:55:41;;;;;;;;;;;14.00;94.60;;;;;;5016244;28;19928;-76
2022/05/30 08:58:09;;;;;;;;;;;13.70;96.70;;;;;;5016103;28;19922;-77
2022/05/30 09:00:35;;;;;;;;;;;13.30;99.90;;;;;;5016419;28;19921;-77
2022/05/30 09:03:01;;;;;;;;;;;12.80;99.90;;;;;;5015237;28;19922;-77
2022/05/30 09:05:28;;;;;;;;;;;12.40;99.90;;;;;;5016074;28;20459;-77
2022/05/30 09:07:58;;;;;;;;;;;12.10;99.90;;;;;;5016081;28;19921;-77
2022/05/30 09:10:31;;;;;;;;;;;11.90;99.90;;;;;;5016512;28;19975;-76
2022/05/30 09:13:00;;;;;;;;;;;11.80;99.90;;;;;;5022761;28;19921;-76
2022/05/30 09:15:34;;;;;;;;;;;11.60;99.90;;;;;;5020938;28;19981;-77
2022/05/30 09:18:00;;;;;;;;;;;11.70;99.90;;;;;;5019912;28;19928;-76
2022/05/30 09:20:26;;;;;;;;;;;11.70;99.90;;;;;;5036202;28;19926;-75
2022/05/30 09:22:51;;;;;;;;;;;11.70;99.90;;;;;;5040221;28;19921;-74
2022/05/30 09:28:06;;;;;;;;;;;11.80;99.90;;;;;;5038817;28;19928;-78
2022/05/30 09:30:44;;;;;;;;;;;11.80;99.90;;;;;;5025282;28;19961;-78
2022/05/30 09:33:14;;;;;;;;;;;11.90;99.90;;;;;;5015048;28;20280;-78
2022/05/30 09:35:41;;;;;;;;;;;12.00;99.90;;;;;;5015901;28;20369;-77
2022/05/30 09:38:07;;;;;;;;;;;12.00;99.90;;;;;;5015824;28;19925;-78
2022/05/30 09:40:40;;;;;;;;;;;12.10;99.90;;;;;;5015553;28;19972;-78
2022/05/30 09:43:07;;;;;;;;;;;12.20;99.90;;;;;;5030971;28;19921;-78
2022/05/30 09:45:32;;;;;;;;;;;12.30;99.90;;;;;;5015278;28;20162;-79
2022/05/30 09:47:58;;;;;;;;;;;12.40;99.90;;;;;;5015718;28;19925;-78
2022/05/30 09:50:24;;;;;;;;;;;12.50;99.90;;;;;;5015394;28;19944;-80
2022/05/30 09:52:49;;;;;;;;;;;12.60;99.90;;;;;;5014680;28;20354;-82
2022/05/30 09:55:27;;;;;;;;;;;12.70;99.90;;;;;;5013914;28;20336;-83
2022/05/30 09:57:53;;;;;;;;;;;12.80;99.90;;;;;;5015594;28;19968;-81
2022/05/30 10:00:28;;;;;;;;;;;12.80;99.90;;;;;;5014994;28;19925;-82
2022/05/30 10:02:57;;;;;;;;;;;12.70;99.90;;;;;;5015195;28;19927;-80
2022/05/30 10:05:25;;;;;;;;;;;12.70;99.90;;;;;;5013829;28;19995;-82
2022/05/30 10:08:04;;;;;;;;;;;12.60;99.90;;;;;;5015205;28;20016;-80
2022/05/30 10:10:31;;;;;;;;;;;12.60;99.90;;;;;;5014913;28;19921;-78
2022/05/30 10:12:57;;;;;;;;;;;12.70;99.90;;;;;;5015096;28;19921;-79
2022/05/30 10:15:28;;;;;;;;;;;12.70;99.90;;;;;;5013767;28;19944;-80
2022/05/30 10:17:54;;;;;;;;;;;12.70;99.90;;;;;;5013838;28;19928;-80
2022/05/30 10:20:24;;;;;;;;;;;12.80;99.90;;;;;;5013475;28;19921;-80
2022/05/30 10:28:50;;;;;;;;;;;13.00;99.90;;;;;;5014903;28;19929;-82
2022/05/30 10:31:25;;;;;;;;;;;13.10;99.90;;;;;;5014022;28;20443;-81
2022/05/30 10:33:54;;;;;;;;;;;13.30;99.90;;;;;;5014591;28;19925;-80
2022/05/30 10:36:29;;;;;;;;;;;13.40;99.90;;;;;;5014432;28;20288;-86
2022/05/30 10:39:02;;;;;;;;;;;13.30;99.90;;;;;;5013768;28;19979;-82
2022/05/30 10:41:57;;;;;;;;;;;13.10;99.90;;;;;;5013026;28;20044;-80
2022/05/30 10:44:26;;;;;;;;;;;12.90;99.90;;;;;;5008950;28;20020;-79
2022/05/30 10:46:57;;;;;;;;;;;12.60;99.90;;;;;;5013274;28;20415;-79
2022/05/30 10:49:23;;;;;;;;;;;12.40;99.90;;;;;;5013041;28;19972;-81
2022/05/30 10:51:50;;;;;;;;;;;12.20;99.90;;;;;;5013269;28;20020;-79
2022/05/30 10:54:34;;;;;;;;;;;12.10;99.90;;;;;;5013106;28;19926;-79
2022/05/30 10:57:06;;;;;;;;;;;11.90;99.90;;;;;;5014441;28;19921;-80
2022/05/30 10:59:43;;;;;;;;;;;11.90;99.90;;;;;;5012908;28;20274;-78
2022/05/30 11:02:27;;;;;;;;;;;11.80;99.90;;;;;;5014123;28;19929;-78
2022/05/30 11:04:54;;;;;;;;;;;11.80;99.90;;;;;;5014220;28;19944;-78
2022/05/30 11:07:38;;;;;;;;;;;11.80;99.90;;;;;;5015503;28;19922;-78
2022/05/30 11:10:10;;;;;;;;;;;11.80;99.90;;;;;;5019527;28;20420;-78
2022/05/30 11:12:38;;;;;;;;;;;11.90;99.90;;;;;;5016465;28;19921;-79
2022/05/30 11:15:04;;;;;;;;;;;12.00;99.90;;;;;;5022671;28;19905;-78
2022/05/30 11:17:38;;;;;;;;;;;12.10;99.90;;;;;;5038335;28;19960;-80
2022/05/30 11:20:04;;;;;;;;;;;12.20;99.90;;;;;;5038314;28;19972;-80
2022/05/30 11:22:32;;;;;;;;;;;12.30;99.90;;;;;;5038317;28;19933;-79
2022/05/30 11:24:58;;;;;;;;;;;12.40;99.90;;;;;;5026354;28;20332;-77
2022/05/30 11:27:29;;;;;;;;;;;12.50;99.90;;;;;;5014895;28;19972;-80
2022/05/30 11:30:01;;;;;;;;;;;12.70;99.90;;;;;;5014551;28;20340;-78
2022/05/30 11:32:41;;;;;;;;;;;12.80;99.90;;;;;;5014279;28;19921;-78
2022/05/30 11:35:26;;;;;;;;;;;12.90;99.90;;;;;;5013865;28;20012;-78
2022/05/30 11:38:11;;;;;;;;;;;13.00;99.90;;;;;;5013770;28;19928;-78
2022/05/30 11:40:51;;;;;;;;;;;13.10;99.90;;;;;;5014044;28;20262;-77
2022/05/30 11:43:30;;;;;;;;;;;13.10;99.90;;;;;;5012347;28;19972;-79
2022/05/30 11:46:14;;;;;;;;;;;13.20;99.90;;;;;;5013471;28;19921;-77
2022/05/30 11:48:43;;;;;;;;;;;13.30;99.90;;;;;;5013689;28;19928;-77
2022/05/30 11:51:09;;;;;;;;;;;13.40;99.90;;;;;;5013850;28;20452;-77
2022/05/30 11:53:53;;;;;;;;;;;13.50;99.90;;;;;;5013767;28;19922;-77
2022/05/30 11:56:24;;;;;;;;;;;13.60;99.90;;;;;;5014015;28;19928;-77
2022/05/30 11:59:08;;;;;;;;;;;13.80;99.90;;;;;;5013568;28;19925;-77
2022/05/30 12:01:34;;;;;;;;;;;13.90;99.90;;;;;;5013502;28;19921;-77
2022/05/30 12:04:06;;;;;;;;;;;14.10;99.90;;;;;;5012558;28;19922;-77
2022/05/30 12:06:42;;;;;;;;;;;14.20;99.90;;;;;;4996763;28;20012;-78
2022/05/30 12:09:34;;;;;;;;;;;14.30;99.90;;;;;;5013447;28;19937;-78
2022/05/30 12:12:00;;;;;;;;;;;14.40;99.90;;;;;;5010700;28;19929;-78
2022/05/30 12:14:35;;;;;;;;;;;14.40;99.90;;;;;;5012393;28;19922;-77
2022/05/30 12:17:19;;;;;;;;;;;14.40;99.90;;;;;;5013478;28;19921;-78
2022/05/30 12:25:34;;;;;;;;;;;14.20;99.90;;;;;;5013514;28;19968;-77
2022/05/30 12:27:59;;;;;;;;;;;14.10;99.70;;;;;;5013198;28;19922;-77
2022/05/30 12:30:34;;;;;;;;;;;14.00;99.90;;;;;;5013341;28;19925;-78
2022/05/30 12:32:59;;;;;;;;;;;13.90;99.90;;;;;;5012992;28;19921;-77
2022/05/30 12:35:26;;;;;;;;;;;13.90;99.90;;;;;;5013159;28;20357;-77
2022/05/30 12:37:58;;;;;;;;;;;13.90;99.90;;;;;;5012825;28;19921;-77
2022/05/30 12:40:24;;;;;;;;;;;14.00;99.90;;;;;;5012280;28;19921;-78
2022/05/30 12:43:08;;;;;;;;;;;14.10;99.90;;;;;;5012958;28;19922;-77
2022/05/30 12:45:37;;;;;;;;;;;14.20;99.90;;;;;;5013254;28;19921;-77
2022/05/30 12:48:22;;;;;;;;;;;14.30;99.90;;;;;;5012768;28;19928;-78
2022/05/30 12:50:50;;;;;;;;;;;14.30;99.90;;;;;;5012805;28;19925;-77
2022/05/30 12:53:16;;;;;;;;;;;14.20;99.80;;;;;;5013970;28;19922;-77
2022/05/30 12:55:45;;;;;;;;;;;14.20;99.90;;;;;;5016278;28;19975;-78
2022/05/30 12:58:12;;;;;;;;;;;14.10;99.90;;;;;;5017011;28;19921;-77
2022/05/30 13:00:41;;;;;;;;;;;14.10;99.90;;;;;;5029442;28;19991;-77
2022/05/30 13:03:23;;;;;;;;;;;13.90;99.90;;;;;;5027597;28;19921;-77
2022/05/30 13:06:12;;;;;;;;;;;13.80;99.90;;;;;;5025247;28;19932;-82
2022/05/30 13:08:51;;;;;;;;;;;13.60;99.80;;;;;;5038134;28;19926;-79
2022/05/30 13:11:32;;;;;;;;;;;13.30;99.90;;;;;;5040679;28;19906;-78
2022/05/30 13:14:00;;;;;;;;;;;13.10;99.90;;;;;;5031799;28;19932;-75
2022/05/30 13:16:27;;;;;;;;;;;13.00;99.90;;;;;;5015350;28;20345;-77
2022/05/30 13:18:53;;;;;;;;;;;12.90;99.90;;;;;;5014928;28;19921;-77
2022/05/30 13:21:19;;;;;;;;;;;12.80;99.90;;;;;;4999081;28;19928;-78
2022/05/30 13:23:44;;;;;;;;;;;12.70;99.90;;;;;;5015017;28;20015;-88
2022/05/30 13:26:11;;;;;;;;;;;12.60;99.90;;;;;;5016141;28;19932;-77
2022/05/30 13:28:41;;;;;;;;;;;12.70;99.90;;;;;;5016234;28;20285;-78
2022/05/30 13:31:08;;;;;;;;;;;12.60;99.90;;;;;;5015570;28;19922;-78
2022/05/30 13:33:39;;;;;;;;;;;12.70;99.90;;;;;;5014751;28;19921;-78
2022/05/30 13:36:05;;;;;;;;;;;12.70;99.90;;;;;;5015599;28;20310;-78
2022/05/30 13:38:40;;;;;;;;;;;12.80;99.90;;;;;;5014664;28;20401;-78
2022/05/30 13:41:10;;;;;;;;;;;12.90;99.90;;;;;;5014257;28;19976;-78
2022/05/30 13:43:36;;;;;;;;;;;13.00;99.90;;;;;;5014576;28;20325;-78
2022/05/30 13:46:01;;;;;;;;;;;13.20;99.90;;;;;;5014037;28;20019;-79
2022/05/30 13:48:28;;;;;;;;;;;13.40;99.90;;;;;;5015186;28;20404;-78
2022/05/30 13:50:58;;;;;;;;;;;13.60;99.90;;;;;;5015266;28;19921;-78
2022/05/30 13:53:26;;;;;;;;;;;13.70;99.90;;;;;;5014358;28;19971;-78
2022/05/30 13:56:04;;;;;;;;;;;13.80;99.90;;;;;;5015131;28;19921;-78
2022/05/30 13:58:30;;;;;;;;;;;13.90;99.90;;;;;;5015407;28;19922;-78
2022/05/30 14:00:58;;;;;;;;;;;13.80;99.90;;;;;;5014151;28;19928;-78
2022/05/30 14:03:24;;;;;;;;;;;13.80;99.90;;;;;;5015518;28;19944;-78
2022/05/30 14:05:50;;;;;;;;;;;13.70;99.90;;;;;;5013775;28;20365;-79
2022/05/30 14:08:41;;;;;;;;;;;13.70;99.90;;;;;;5030403;28;20388;-79
2022/05/30 14:11:07;;;;;;;;;;;13.70;99.90;;;;;;5013791;28;19933;-79
2022/05/30 14:13:34;;;;;;;;;;;13.80;99.90;;;;;;5015207;28;20284;-79
2022/05/30 14:16:00;;;;;;;;;;;13.80;99.90;;;;;;5014867;28;19925;-79
2022/05/30 14:18:26;;;;;;;;;;;13.80;99.90;;;;;;5013925;28;20332;-79
2022/05/30 14:20:52;;;;;;;;;;;13.90;99.90;;;;;;5015032;28;19968;-79
2022/05/30 14:23:18;;;;;;;;;;;13.90;99.80;;;;;;5014954;28;19930;-79
2022/05/30 14:25:44;;;;;;;;;;;14.00;99.90;;;;;;5014989;28;19921;-79
2022/05/30 14:28:26;;;;;;;;;;;14.00;99.90;;;;;;4996897;28;19921;-78
2022/05/30 14:30:51;;;;;;;;;;;14.10;99.90;;;;;;5013880;28;19922;-79
2022/05/30 14:33:17;;;;;;;;;;;14.00;99.90;;;;;;5013375;28;19932;-79
2022/05/30 14:35:43;;;;;;;;;;;13.90;99.90;;;;;;5014740;28;19921;-79
2022/05/30 14:38:22;;;;;;;;;;;13.80;99.90;;;;;;5014427;28;20024;-79
2022/05/30 14:40:52;;;;;;;;;;;13.70;99.90;;;;;;5014826;28;19925;-79
2022/05/30 14:43:40;;;;;;;;;;;13.60;99.90;;;;;;5014427;28;19925;-79
2022/05/30 14:46:12;;;;;;;;;;;13.50;99.90;;;;;;5011305;28;20336;-79
2022/05/30 14:48:39;;;;;;;;;;;13.60;99.90;;;;;;5013715;28;20289;-79
2022/05/30 14:51:05;;;;;;;;;;;13.50;99.90;;;;;;5027908;28;19925;-79
2022/05/30 14:53:32;;;;;;;;;;;13.60;99.90;;;;;;5030385;28;19944;-79
2022/05/30 14:55:58;;;;;;;;;;;13.70;99.90;;;;;;5026168;28;20011;-83